ADDS TAF Data INFO
IDs: Format: Raw Decoded Include METARs

Data at: 1812 UTC 24 Jun 2018

KLVS 241753Z AUTO 23016G19KT 10SM CLR 31/M08 A3005 RMK AO2 SLP044 T03111078 10317 20156 58003

KLVS 241722Z 2418/2518 26012G22KT P6SM SKC
  FM242000 26020G30KT P6SM SKC
  FM250100 30018G28KT P6SM FEW120
  FM250300 02014G28KT P6SM FEW080
  FM250800 03008KT P6SM SKC
  FM251500 19010KT P6SM SKC